Latest Weather Observations for Portland Harbour

IDV60801

Issued at 6:12 pm EST Wednesday 24 April 2019 (issued every 10 minutes, with the page automatically refreshed every 10 minutes)

About weather observations | Map of weather stations | Latest weather observations for VIC | Other Formats
Station Details ID: 090192 Name: PORTLAND NTC AWS Lat: -38.34 Lon: 141.61 Height: 0.0 m
Data from the previous 72 hours. | See also: Recent months for locations in Victoria
Date/Time
EST
Temp
°C
App
Temp
°C
Dew
Point
°C
Rel
Hum
%
Delta-T
°C
Wind Press
QNH
hPa
Press
MSL
hPa
Rain since
9am
mm
Dir  Spd
km/h
Gust
km/h
Spd
kts
Gust
kts
24/06:00pm 15.1 - - - - W 11 17 6 9 1023.0 1023.0 -
24/05:30pm 15.6 - - - - W 17 24 9 13 1022.8 1022.8 -
24/05:00pm 15.9 - - - - W 20 33 11 18 1022.7 1022.7 -
24/04:30pm 16.1 - - - - W 24 35 13 19 1022.8 1022.8 -
24/04:00pm 16.7 - - - - W 22 32 12 17 1022.8 1022.8 -
24/03:30pm 16.6 - - - - W 24 32 13 17 1022.8 1022.8 -
24/03:00pm 16.3 - - - - W 19 32 10 17 1022.8 1022.8 -
24/02:30pm 15.9 - - - - WSW 20 30 11 16 1023.4 1023.4 -
24/02:00pm 16.0 - - - - WSW 22 32 12 17 1023.5 1023.5 -
24/01:30pm 15.2 - - - - WSW 22 33 12 18 1023.8 1023.8 -
24/01:00pm 14.8 - - - - W 20 28 11 15 1023.9 1023.9 -
24/12:30pm 15.2 - - - - W 22 32 12 17 1024.1 1024.1 -
24/12:00pm 15.9 - - - - W 20 28 11 15 1023.8 1023.8 -
24/11:30am 15.6 - - - - W 17 28 9 15 1024.2 1024.2 -
24/11:00am 15.6 - - - - WNW 13 22 7 12 1024.4 1024.4 -
24/10:30am 15.1 - - - - WNW 11 19 6 10 1024.7 1024.7 -
24/10:00am 14.9 - - - - NNW 9 13 5 7 1025.0 1025.0 -
24/09:30am 13.4 - - - - WNW 9 13 5 7 1025.5 1025.5 -
24/09:00am 11.6 - - - - WSW 4 6 2 3 1025.5 1025.5 -
24/08:30am 9.8 - - - - SW 6 7 3 4 1025.2 1025.2 -
24/08:00am 10.0 - - - - SW 4 6 2 3 1024.9 1024.9 -
24/07:30am 9.9 - - - - WSW 4 6 2 3 1024.7 1024.7 -
24/07:00am 9.7 - - - - W 9 11 5 6 1024.6 1024.6 -
24/06:30am 10.2 - - - - W 4 7 2 4 1024.3 1024.3 -
24/06:00am 9.7 - - - - WSW 6 9 3 5 1024.7 1024.7 -
24/05:30am 10.5 - - - - WNW 7 9 4 5 1024.6 1024.6 -
24/05:00am 10.2 - - - - WSW 7 11 4 6 1024.9 1024.9 -
24/04:30am 10.9 - - - - WSW 4 7 2 4 1025.0 1025.0 -
24/04:00am 10.9 - - - - SW 6 9 3 5 1025.0 1025.0 -
24/03:30am 11.4 - - - - WNW 7 9 4 5 1025.1 1025.1 -
24/03:00am 11.5 - - - - WNW 6 11 3 6 1025.3 1025.3 -
24/02:30am 11.8 - - - - WSW 6 7 3 4 1025.4 1025.4 -
24/02:00am 14.3 - - - - ESE 7 9 4 5 1025.4 1025.4 -
24/01:30am 14.9 - - - - ESE 9 11 5 6 1025.7 1025.7 -
24/01:00am 15.0 - - - - E 11 15 6 8 1026.0 1026.0 -
24/12:30am 14.9 - - - - ESE 11 15 6 8 1026.0 1026.0 -
24/12:00am 14.9 - - - - SE 11 15 6 8 1026.4 1026.4 -
 
Date/Time
EST
Temp
°C
App
Temp
°C
Dew
Point
°C
Rel
Hum
%
Delta-T
°C
Wind Press
QNH
hPa
Press
MSL
hPa
Rain since
9am
mm
Dir  Spd
km/h
Gust
km/h
Spd
kts
Gust
kts
23/11:30pm 15.0 - - - - ESE 15 19 8 10 1026.8 1026.8 -
23/11:00pm 15.2 - - - - SSE 9 13 5 7 1027.1 1027.1 -
23/10:30pm 15.2 - - - - SE 9 15 5 8 1027.3 1027.3 -
23/10:00pm 15.2 - - - - SE 11 17 6 9 1027.5 1027.5 -
23/09:30pm 15.0 - - - - SSE 7 15 4 8 1027.4 1027.4 -
23/09:00pm 15.1 - - - - SSW 6 7 3 4 1027.5 1027.5 -
23/08:30pm 15.2 - - - - ESE 11 17 6 9 1027.5 1027.5 -
23/08:00pm 15.3 - - - - SE 7 13 4 7 1027.5 1027.5 -
23/07:30pm 15.1 - - - - SE 9 15 5 8 1027.7 1027.7 -
23/07:00pm 15.1 - - - - SSE 9 19 5 10 1027.6 1027.6 -
23/06:30pm 15.0 - - - - SSE 15 20 8 11 1027.6 1027.6 -
23/06:00pm 14.9 - - - - S 15 22 8 12 1027.6 1027.6 -
23/05:30pm 15.0 - - - - SSE 13 19 7 10 1027.5 1027.5 -
23/05:00pm 14.9 - - - - S 13 20 7 11 1027.4 1027.4 -
23/04:30pm 15.1 - - - - S 15 20 8 11 1027.4 1027.4 -
23/04:00pm 15.5 - - - - S 9 19 5 10 1027.4 1027.4 -
23/03:30pm 15.2 - - - - SE 11 15 6 8 1027.4 1027.4 -
23/03:00pm 15.3 - - - - ESE 11 15 6 8 1027.3 1027.3 -
23/02:30pm 15.2 - - - - ESE 11 17 6 9 1027.4 1027.4 -
23/02:00pm 15.4 - - - - SE 15 20 8 11 1027.7 1027.7 -
23/01:30pm 15.6 - - - - SSE 9 20 5 11 1027.6 1027.6 -
23/01:00pm 15.3 - - - - SE 11 17 6 9 1028.0 1028.0 -
23/12:30pm 15.1 - - - - ESE 9 13 5 7 1028.3 1028.3 -
23/12:00pm 14.8 - - - - NE 7 11 4 6 1028.7 1028.7 -
23/11:30am 14.7 - - - - NNE 6 7 3 4 1029.0 1029.0 -
23/11:00am 14.6 - - - - NE 6 7 3 4 1029.0 1029.0 -
23/10:30am 14.0 - - - - NNE 6 6 3 3 1029.2 1029.2 -
23/10:00am 14.4 - - - - NNE 2 4 1 2 1029.2 1029.2 -
23/09:30am 13.5 - - - - WNW 2 6 1 3 1029.2 1029.2 -
23/09:00am 11.0 - - - - W 4 6 2 3 1029.2 1029.2 -
23/08:30am 8.4 - - - - W 6 7 3 4 1028.9 1028.9 -
23/08:00am 6.9 - - - - WSW 7 9 4 5 1028.7 1028.7 -
23/07:30am 7.3 - - - - W 6 7 3 4 1028.2 1028.2 -
23/07:00am 7.1 - - - - WSW 4 7 2 4 1028.1 1028.1 -
23/06:30am 7.1 - - - - WSW 7 9 4 5 1027.9 1027.9 -
23/06:00am 6.6 - - - - WSW 7 11 4 6 1027.9 1027.9 -
23/05:30am 7.5 - - - - WSW 7 11 4 6 1027.6 1027.6 -
23/05:00am 6.9 - - - - WSW 7 9 4 5 1027.3 1027.3 -
23/04:30am 7.1 - - - - WSW 7 9 4 5 1027.2 1027.2 -
23/04:00am 7.3 - - - - WSW 6 9 3 5 1027.4 1027.4 -
23/03:30am 7.7 - - - - WSW 7 9 4 5 1027.8 1027.8 -
23/03:00am 8.2 - - - - WSW 6 9 3 5 1028.0 1028.0 -
23/02:30am 8.6 - - - - WSW 6 7 3 4 1028.1 1028.1 -
23/02:00am 8.9 - - - - WSW 6 7 3 4 1028.2 1028.2 -
23/01:30am 9.0 - - - - W 4 6 2 3 1028.3 1028.3 -
23/01:00am 9.0 - - - - WSW 6 7 3 4 1028.2 1028.2 -
23/12:30am 9.9 - - - - WSW 6 7 3 4 1028.1 1028.1 -
23/12:00am 10.5 - - - - SW 6 7 3 4 1027.9 1027.9 -
 
Date/Time
EST
Temp
°C
App
Temp
°C
Dew
Point
°C
Rel
Hum
%
Delta-T
°C
Wind Press
QNH
hPa
Press
MSL
hPa
Rain since
9am
mm
Dir  Spd
km/h
Gust
km/h
Spd
kts
Gust
kts
22/11:30pm 10.9 - - - - WSW 6 7 3 4 1028.1 1028.1 -
22/11:00pm 11.7 - - - - WSW 6 7 3 4 1028.1 1028.1 -
22/10:30pm 12.5 - - - - SW 6 6 3 3 1028.1 1028.1 -
22/10:00pm 13.1 - - - - SSW 7 7 4 4 1028.3 1028.3 -
22/09:30pm 14.6 - - - - SSE 7 13 4 7 1028.4 1028.4 -
22/09:00pm 14.6 - - - - SSE 9 13 5 7 1028.5 1028.5 -
22/08:30pm 14.9 - - - - SSE 9 20 5 11 1028.6 1028.6 -
22/08:00pm 14.9 - - - - SSE 7 11 4 6 1028.6 1028.6 -
22/07:30pm 14.8 - - - - S 6 9 3 5 1028.5 1028.5 -
22/07:00pm 14.7 - - - - SSE 13 20 7 11 1028.1 1028.1 -
22/06:30pm 14.8 - - - - S 9 15 5 8 1027.7 1027.7 -
22/06:00pm 14.9 - - - - S 13 17 7 9 1027.3 1027.3 -
22/05:30pm 15.0 - - - - SSW 15 20 8 11 1026.8 1026.8 -
22/05:00pm 15.1 - - - - S 11 15 6 8 1026.6 1026.6 -
22/04:30pm 15.0 - - - - S 13 17 7 9 1026.5 1026.5 -
22/04:00pm 15.0 - - - - SSW 17 20 9 11 1026.4 1026.4 -
22/03:30pm 15.3 - - - - SW 15 22 8 12 1026.3 1026.3 -
22/03:00pm 15.8 - - - - SW 17 24 9 13 1026.1 1026.1 -
22/02:30pm 15.9 - - - - SW 7 15 4 8 1026.1 1026.1 -
22/02:00pm 15.7 - - - - SW 13 19 7 10 1026.1 1026.1 -
22/01:30pm 15.6 - - - - WSW 15 20 8 11 1026.2 1026.2 -
22/01:00pm 15.5 - - - - SW 15 24 8 13 1026.2 1026.2 -
22/12:30pm 15.4 - - - - WSW 13 22 7 12 1026.4 1026.4 -
22/12:00pm 15.4 - - - - WSW 11 20 6 11 1026.7 1026.7 -
22/11:30am 15.1 - - - - WSW 13 20 7 11 1027.0 1027.0 -
22/11:00am 14.8 - - - - SW 13 20 7 11 1026.9 1026.9 -
22/10:30am 14.8 - - - - SSW 11 20 6 11 1026.5 1026.5 -
22/10:00am 14.4 - - - - WSW 9 13 5 7 1026.5 1026.5 -
22/09:30am 13.6 - - - - W 6 9 3 5 1026.6 1026.6 -
22/09:00am 11.7 - - - - WNW 6 9 3 5 1026.5 1026.5 -
22/08:30am 10.5 - - - - W 6 7 3 4 1026.2 1026.2 -
22/08:00am 9.9 - - - - WNW 6 9 3 5 1025.8 1025.8 -
22/07:30am 9.3 - - - - WSW 4 7 2 4 1025.1 1025.1 -
22/07:00am 9.8 - - - - WSW 6 7 3 4 1024.9 1024.9 -
22/06:30am 10.1 - - - - WSW 4 7 2 4 1024.6 1024.6 -
22/06:00am 9.0 - - - - W 9 13 5 7 1024.1 1024.1 -
22/05:30am 9.5 - - - - WSW 7 11 4 6 1023.9 1023.9 -
22/05:00am 9.8 - - - - W 7 9 4 5 1023.5 1023.5 -
22/04:30am 9.9 - - - - W 9 13 5 7 1023.3 1023.3 -
22/04:00am 10.3 - - - - WNW 11 15 6 8 1023.3 1023.3 -
22/03:30am 9.7 - - - - W 15 20 8 11 1023.2 1023.2 -
22/03:00am 9.7 - - - - SW 6 7 3 4 1023.3 1023.3 -
22/02:30am 10.7 - - - - WNW 4 7 2 4 1023.6 1023.6 -
22/02:00am 9.7 - - - - WNW 2 6 1 3 1023.6 1023.6 -
22/01:30am 10.0 - - - - W 7 11 4 6 1023.3 1023.3 -
22/01:00am 9.6 - - - - W 6 9 3 5 1023.4 1023.4 -
22/12:30am 9.7 - - - - WSW 6 7 3 4 1023.2 1023.2 -
22/12:00am 10.1 - - - - W 7 9 4 5 1023.0 1023.0 -
 
Date/Time
EST
Temp
°C
App
Temp
°C
Dew
Point
°C
Rel
Hum
%
Delta-T
°C
Wind Press
QNH
hPa
Press
MSL
hPa
Rain since
9am
mm
Dir  Spd
km/h
Gust
km/h
Spd
kts
Gust
kts
21/11:30pm 11.1 - - - - WNW 9 13 5 7 1023.0 1023.0 -
21/11:00pm 11.2 - - - - WNW 9 11 5 6 1023.1 1023.1 -
21/10:30pm 11.6 - - - - WNW 7 9 4 5 1023.2 1023.2 -
21/10:00pm 11.7 - - - - W 6 7 3 4 1023.2 1023.2 -
21/09:30pm 12.1 - - - - W 7 11 4 6 1022.9 1022.9 -
21/09:00pm 12.3 - - - - W 7 11 4 6 1022.5 1022.5 -
21/08:30pm 12.3 - - - - W 7 11 4 6 1022.0 1022.0 -
21/08:00pm 12.9 - - - - W 7 9 4 5 1021.7 1021.7 -
21/07:30pm 13.6 - - - - WSW 9 11 5 6 1021.5 1021.5 -
21/07:00pm 13.8 - - - - WSW 13 17 7 9 1021.2 1021.2 -
21/06:30pm 14.3 - - - - WSW 13 17 7 9 1020.9 1020.9 -

Other formats

Comma delimited format used in spreadsheet applications
http://www.bom.gov.au/fwo/IDV60801/IDV60801.95826.axf

JavaScript Object Notation format (JSON) in row-major order
http://www.bom.gov.au/fwo/IDV60801/IDV60801.95826.json

Data quality

Most of these data are generated automatically and are frequently updated. Quality checks on data are not normally performed. It is possible for incorrect values to appear. Refer to information at About Latest Weather Observations and please check the disclaimer before using these data.